sensor_id;sensor_type;location;lat;lon;timestamp;temperature;humidity
55828;DHT22;41758;51.992;5.890;2023-12-07T00:01:29;6.10;69.40
55828;DHT22;41758;51.992;5.890;2023-12-07T00:03:54;6.00;69.30
55828;DHT22;41758;51.992;5.890;2023-12-07T00:06:20;6.00;69.30
55828;DHT22;41758;51.992;5.890;2023-12-07T00:08:46;6.00;69.30
55828;DHT22;41758;51.992;5.890;2023-12-07T00:11:11;5.90;69.40
55828;DHT22;41758;51.992;5.890;2023-12-07T00:13:37;5.90;69.30
55828;DHT22;41758;51.992;5.890;2023-12-07T00:16:03;5.90;69.30
55828;DHT22;41758;51.992;5.890;2023-12-07T00:18:28;5.90;69.40
55828;DHT22;41758;51.992;5.890;2023-12-07T00:20:54;5.90;69.30
55828;DHT22;41758;51.992;5.890;2023-12-07T00:23:20;5.80;69.30
55828;DHT22;41758;51.992;5.890;2023-12-07T00:25:45;5.80;69.30
55828;DHT22;41758;51.992;5.890;2023-12-07T00:28:11;5.80;69.30
55828;DHT22;41758;51.992;5.890;2023-12-07T00:30:37;5.80;69.30
55828;DHT22;41758;51.992;5.890;2023-12-07T00:33:02;5.80;69.30
55828;DHT22;41758;51.992;5.890;2023-12-07T00:35:28;5.80;69.30
55828;DHT22;41758;51.992;5.890;2023-12-07T00:37:55;5.80;69.30
55828;DHT22;41758;51.992;5.890;2023-12-07T00:40:22;5.80;69.30
55828;DHT22;41758;51.992;5.890;2023-12-07T00:42:48;5.70;69.30
55828;DHT22;41758;51.992;5.890;2023-12-07T00:45:13;5.70;69.30
55828;DHT22;41758;51.992;5.890;2023-12-07T00:47:39;5.70;69.40
55828;DHT22;41758;51.992;5.890;2023-12-07T00:50:06;5.70;69.50
55828;DHT22;41758;51.992;5.890;2023-12-07T00:52:32;5.70;69.50
55828;DHT22;41758;51.992;5.890;2023-12-07T00:54:58;5.80;69.60
55828;DHT22;41758;51.992;5.890;2023-12-07T00:57:23;5.80;69.60
55828;DHT22;41758;51.992;5.890;2023-12-07T00:59:49;5.80;69.60
55828;DHT22;41758;51.992;5.890;2023-12-07T01:02:14;5.80;69.50
55828;DHT22;41758;51.992;5.890;2023-12-07T01:04:40;5.70;69.40
55828;DHT22;41758;51.992;5.890;2023-12-07T01:07:06;5.80;69.40
55828;DHT22;41758;51.992;5.890;2023-12-07T01:09:31;5.70;69.30
55828;DHT22;41758;51.992;5.890;2023-12-07T01:11:58;5.70;69.30
55828;DHT22;41758;51.992;5.890;2023-12-07T01:14:24;5.70;69.30
55828;DHT22;41758;51.992;5.890;2023-12-07T01:16:50;5.70;69.30
55828;DHT22;41758;51.992;5.890;2023-12-07T01:19:16;5.70;69.30
55828;DHT22;41758;51.992;5.890;2023-12-07T01:21:42;5.60;69.30
55828;DHT22;41758;51.992;5.890;2023-12-07T01:24:09;5.60;69.20
55828;DHT22;41758;51.992;5.890;2023-12-07T01:26:34;5.60;69.30
55828;DHT22;41758;51.992;5.890;2023-12-07T01:29:00;5.60;69.30
55828;DHT22;41758;51.992;5.890;2023-12-07T01:31:26;5.60;69.40
55828;DHT22;41758;51.992;5.890;2023-12-07T01:33:51;5.60;69.40
55828;DHT22;41758;51.992;5.890;2023-12-07T01:36:17;5.60;69.30
55828;DHT22;41758;51.992;5.890;2023-12-07T01:38:43;5.60;69.40
55828;DHT22;41758;51.992;5.890;2023-12-07T01:41:12;5.60;69.30
55828;DHT22;41758;51.992;5.890;2023-12-07T01:43:43;5.60;69.30
55828;DHT22;41758;51.992;5.890;2023-12-07T01:46:10;5.60;69.30
55828;DHT22;41758;51.992;5.890;2023-12-07T01:48:36;5.60;69.30
55828;DHT22;41758;51.992;5.890;2023-12-07T01:51:02;5.60;69.40
55828;DHT22;41758;51.992;5.890;2023-12-07T01:53:29;5.60;69.40
55828;DHT22;41758;51.992;5.890;2023-12-07T01:55:55;5.60;69.50
55828;DHT22;41758;51.992;5.890;2023-12-07T01:58:21;5.60;69.50
55828;DHT22;41758;51.992;5.890;2023-12-07T02:00:48;5.60;69.40
55828;DHT22;41758;51.992;5.890;2023-12-07T02:03:16;5.60;69.50
55828;DHT22;41758;51.992;5.890;2023-12-07T02:05:46;5.60;69.50
55828;DHT22;41758;51.992;5.890;2023-12-07T02:08:11;5.60;69.50
55828;DHT22;41758;51.992;5.890;2023-12-07T02:10:37;5.60;69.50
55828;DHT22;41758;51.992;5.890;2023-12-07T02:13:03;5.60;69.50
55828;DHT22;41758;51.992;5.890;2023-12-07T02:15:29;5.60;69.60
55828;DHT22;41758;51.992;5.890;2023-12-07T02:20:43;5.70;69.60
55828;DHT22;41758;51.992;5.890;2023-12-07T02:23:11;5.80;69.60
55828;DHT22;41758;51.992;5.890;2023-12-07T02:25:51;5.80;69.70
55828;DHT22;41758;51.992;5.890;2023-12-07T02:28:16;5.80;69.70
55828;DHT22;41758;51.992;5.890;2023-12-07T02:30:43;5.80;69.80
55828;DHT22;41758;51.992;5.890;2023-12-07T02:33:08;5.90;69.80
55828;DHT22;41758;51.992;5.890;2023-12-07T02:35:35;5.90;69.90
55828;DHT22;41758;51.992;5.890;2023-12-07T02:38:02;6.00;70.00
55828;DHT22;41758;51.992;5.890;2023-12-07T02:40:29;6.00;70.00
55828;DHT22;41758;51.992;5.890;2023-12-07T02:42:56;6.00;70.00
55828;DHT22;41758;51.992;5.890;2023-12-07T02:45:22;6.10;69.90
55828;DHT22;41758;51.992;5.890;2023-12-07T02:47:48;6.10;69.90
55828;DHT22;41758;51.992;5.890;2023-12-07T02:50:14;6.20;69.80
55828;DHT22;41758;51.992;5.890;2023-12-07T02:52:40;6.20;69.80
55828;DHT22;41758;51.992;5.890;2023-12-07T02:55:06;6.20;69.70
55828;DHT22;41758;51.992;5.890;2023-12-07T02:57:33;6.20;69.70
55828;DHT22;41758;51.992;5.890;2023-12-07T03:00:04;6.20;69.80
55828;DHT22;41758;51.992;5.890;2023-12-07T03:02:38;6.20;69.80
55828;DHT22;41758;51.992;5.890;2023-12-07T03:05:04;6.20;69.80
55828;DHT22;41758;51.992;5.890;2023-12-07T03:07:30;6.20;69.90
55828;DHT22;41758;51.992;5.890;2023-12-07T03:09:56;6.30;69.80
55828;DHT22;41758;51.992;5.890;2023-12-07T03:12:22;6.30;69.70
55828;DHT22;41758;51.992;5.890;2023-12-07T03:14:49;6.20;69.70
55828;DHT22;41758;51.992;5.890;2023-12-07T03:17:14;6.20;69.70
55828;DHT22;41758;51.992;5.890;2023-12-07T03:19:41;6.20;69.70
55828;DHT22;41758;51.992;5.890;2023-12-07T03:22:07;6.30;69.70
55828;DHT22;41758;51.992;5.890;2023-12-07T03:24:37;6.30;69.70
55828;DHT22;41758;51.992;5.890;2023-12-07T03:27:04;6.30;69.70
55828;DHT22;41758;51.992;5.890;2023-12-07T03:29:31;6.30;69.80
55828;DHT22;41758;51.992;5.890;2023-12-07T03:31:57;6.30;69.80
55828;DHT22;41758;51.992;5.890;2023-12-07T03:34:23;6.30;69.80
55828;DHT22;41758;51.992;5.890;2023-12-07T03:36:49;6.40;69.80
55828;DHT22;41758;51.992;5.890;2023-12-07T03:39:16;6.40;69.90
55828;DHT22;41758;51.992;5.890;2023-12-07T03:41:44;6.40;69.90
55828;DHT22;41758;51.992;5.890;2023-12-07T03:44:10;6.50;70.00
55828;DHT22;41758;51.992;5.890;2023-12-07T03:46:36;6.50;70.00
55828;DHT22;41758;51.992;5.890;2023-12-07T03:49:01;6.60;70.00
55828;DHT22;41758;51.992;5.890;2023-12-07T03:51:28;6.60;70.00
55828;DHT22;41758;51.992;5.890;2023-12-07T03:53:54;6.70;70.00
55828;DHT22;41758;51.992;5.890;2023-12-07T03:56:27;6.70;69.90
55828;DHT22;41758;51.992;5.890;2023-12-07T03:58:54;6.70;69.90
55828;DHT22;41758;51.992;5.890;2023-12-07T04:01:24;6.80;69.90
55828;DHT22;41758;51.992;5.890;2023-12-07T04:03:51;6.80;69.80
55828;DHT22;41758;51.992;5.890;2023-12-07T04:06:17;6.80;69.80
55828;DHT22;41758;51.992;5.890;2023-12-07T04:08:44;6.80;69.90
55828;DHT22;41758;51.992;5.890;2023-12-07T04:11:09;6.80;69.90
55828;DHT22;41758;51.992;5.890;2023-12-07T04:13:35;6.80;69.90
55828;DHT22;41758;51.992;5.890;2023-12-07T04:16:01;6.80;69.90
55828;DHT22;41758;51.992;5.890;2023-12-07T04:18:28;6.90;69.80
55828;DHT22;41758;51.992;5.890;2023-12-07T04:20:54;6.90;69.80
55828;DHT22;41758;51.992;5.890;2023-12-07T04:23:19;6.80;69.80
55828;DHT22;41758;51.992;5.890;2023-12-07T04:25:45;6.80;69.80
55828;DHT22;41758;51.992;5.890;2023-12-07T04:28:11;6.80;69.70
55828;DHT22;41758;51.992;5.890;2023-12-07T04:30:37;6.80;69.60
55828;DHT22;41758;51.992;5.890;2023-12-07T04:33:03;6.70;69.60
55828;DHT22;41758;51.992;5.890;2023-12-07T04:35:28;6.70;69.70
55828;DHT22;41758;51.992;5.890;2023-12-07T04:37:54;6.70;69.70
55828;DHT22;41758;51.992;5.890;2023-12-07T04:40:20;6.70;69.70
55828;DHT22;41758;51.992;5.890;2023-12-07T04:42:45;6.60;69.70
55828;DHT22;41758;51.992;5.890;2023-12-07T04:45:11;6.60;69.80
55828;DHT22;41758;51.992;5.890;2023-12-07T04:47:37;6.60;69.90
55828;DHT22;41758;51.992;5.890;2023-12-07T04:50:03;6.60;69.70
55828;DHT22;41758;51.992;5.890;2023-12-07T04:52:29;6.50;69.60
55828;DHT22;41758;51.992;5.890;2023-12-07T04:54:55;6.50;69.60
55828;DHT22;41758;51.992;5.890;2023-12-07T04:57:20;6.40;69.80
55828;DHT22;41758;51.992;5.890;2023-12-07T04:59:46;6.40;69.70
55828;DHT22;41758;51.992;5.890;2023-12-07T05:02:16;6.30;69.90
55828;DHT22;41758;51.992;5.890;2023-12-07T05:04:43;6.30;70.00
55828;DHT22;41758;51.992;5.890;2023-12-07T05:07:09;6.30;70.10
55828;DHT22;41758;51.992;5.890;2023-12-07T05:09:35;6.40;70.30
55828;DHT22;41758;51.992;5.890;2023-12-07T05:12:00;6.40;70.10
55828;DHT22;41758;51.992;5.890;2023-12-07T05:14:26;6.30;70.10
55828;DHT22;41758;51.992;5.890;2023-12-07T05:16:52;6.40;70.20
55828;DHT22;41758;51.992;5.890;2023-12-07T05:19:24;6.40;70.30
55828;DHT22;41758;51.992;5.890;2023-12-07T05:21:53;6.40;70.30
55828;DHT22;41758;51.992;5.890;2023-12-07T05:24:19;6.50;70.30
55828;DHT22;41758;51.992;5.890;2023-12-07T05:26:45;6.50;70.20
55828;DHT22;41758;51.992;5.890;2023-12-07T05:29:15;6.50;70.00
55828;DHT22;41758;51.992;5.890;2023-12-07T05:31:41;6.50;69.90
55828;DHT22;41758;51.992;5.890;2023-12-07T05:34:07;6.50;69.80
55828;DHT22;41758;51.992;5.890;2023-12-07T05:36:33;6.40;69.70
55828;DHT22;41758;51.992;5.890;2023-12-07T05:38:59;6.40;69.70
55828;DHT22;41758;51.992;5.890;2023-12-07T05:41:24;6.40;69.60
55828;DHT22;41758;51.992;5.890;2023-12-07T05:43:53;6.40;69.50
55828;DHT22;41758;51.992;5.890;2023-12-07T05:46:19;6.30;69.50
55828;DHT22;41758;51.992;5.890;2023-12-07T05:48:45;6.30;69.40
55828;DHT22;41758;51.992;5.890;2023-12-07T05:51:13;6.30;69.10
55828;DHT22;41758;51.992;5.890;2023-12-07T05:53:40;6.20;69.20
55828;DHT22;41758;51.992;5.890;2023-12-07T05:56:06;6.10;69.20
55828;DHT22;41758;51.992;5.890;2023-12-07T05:58:31;6.10;69.20
55828;DHT22;41758;51.992;5.890;2023-12-07T06:00:59;6.00;69.30
55828;DHT22;41758;51.992;5.890;2023-12-07T06:03:25;6.00;69.50
55828;DHT22;41758;51.992;5.890;2023-12-07T06:05:51;6.00;69.60
55828;DHT22;41758;51.992;5.890;2023-12-07T06:08:17;6.10;69.70
55828;DHT22;41758;51.992;5.890;2023-12-07T06:10:43;6.10;69.60
55828;DHT22;41758;51.992;5.890;2023-12-07T06:13:09;6.10;69.60
55828;DHT22;41758;51.992;5.890;2023-12-07T06:15:36;6.00;69.60
55828;DHT22;41758;51.992;5.890;2023-12-07T06:18:02;6.00;69.60
55828;DHT22;41758;51.992;5.890;2023-12-07T06:20:28;6.00;69.60
55828;DHT22;41758;51.992;5.890;2023-12-07T06:22:54;6.00;69.70
55828;DHT22;41758;51.992;5.890;2023-12-07T06:25:20;6.00;69.60
55828;DHT22;41758;51.992;5.890;2023-12-07T06:27:45;6.00;69.70
55828;DHT22;41758;51.992;5.890;2023-12-07T06:30:11;5.90;69.90
55828;DHT22;41758;51.992;5.890;2023-12-07T06:32:37;6.00;70.00
55828;DHT22;41758;51.992;5.890;2023-12-07T06:35:03;6.00;69.90
55828;DHT22;41758;51.992;5.890;2023-12-07T06:37:30;6.00;69.90
55828;DHT22;41758;51.992;5.890;2023-12-07T06:39:55;6.00;69.80
55828;DHT22;41758;51.992;5.890;2023-12-07T06:42:21;6.10;69.80
55828;DHT22;41758;51.992;5.890;2023-12-07T06:44:47;6.00;69.70
55828;DHT22;41758;51.992;5.890;2023-12-07T06:47:14;6.10;69.60
55828;DHT22;41758;51.992;5.890;2023-12-07T06:49:41;6.00;69.50
55828;DHT22;41758;51.992;5.890;2023-12-07T06:52:07;6.00;69.50
55828;DHT22;41758;51.992;5.890;2023-12-07T06:54:33;6.00;69.30
55828;DHT22;41758;51.992;5.890;2023-12-07T06:56:59;6.00;69.40
55828;DHT22;41758;51.992;5.890;2023-12-07T06:59:25;5.90;69.10
55828;DHT22;41758;51.992;5.890;2023-12-07T07:01:50;5.80;69.20
55828;DHT22;41758;51.992;5.890;2023-12-07T07:04:16;5.80;69.30
55828;DHT22;41758;51.992;5.890;2023-12-07T07:06:42;5.80;69.30
55828;DHT22;41758;51.992;5.890;2023-12-07T07:09:08;5.80;69.40
55828;DHT22;41758;51.992;5.890;2023-12-07T07:11:33;5.80;69.30
55828;DHT22;41758;51.992;5.890;2023-12-07T07:14:00;5.70;69.40
55828;DHT22;41758;51.992;5.890;2023-12-07T07:16:26;5.70;69.60
55828;DHT22;41758;51.992;5.890;2023-12-07T07:18:51;5.80;69.70
55828;DHT22;41758;51.992;5.890;2023-12-07T07:21:17;5.80;69.70
55828;DHT22;41758;51.992;5.890;2023-12-07T07:23:45;5.70;69.70
55828;DHT22;41758;51.992;5.890;2023-12-07T07:26:11;5.70;69.60
55828;DHT22;41758;51.992;5.890;2023-12-07T07:28:37;5.70;69.60
55828;DHT22;41758;51.992;5.890;2023-12-07T07:31:02;5.70;69.70
55828;DHT22;41758;51.992;5.890;2023-12-07T07:33:28;5.70;69.60
55828;DHT22;41758;51.992;5.890;2023-12-07T07:35:54;5.70;69.70
55828;DHT22;41758;51.992;5.890;2023-12-07T07:38:20;5.70;69.80
55828;DHT22;41758;51.992;5.890;2023-12-07T07:40:46;5.80;69.80
55828;DHT22;41758;51.992;5.890;2023-12-07T07:43:12;5.80;69.70
55828;DHT22;41758;51.992;5.890;2023-12-07T07:45:38;5.80;69.90
55828;DHT22;41758;51.992;5.890;2023-12-07T07:48:04;5.80;69.90
55828;DHT22;41758;51.992;5.890;2023-12-07T07:50:30;5.80;69.90
55828;DHT22;41758;51.992;5.890;2023-12-07T07:52:55;5.80;69.90
55828;DHT22;41758;51.992;5.890;2023-12-07T07:55:21;5.80;69.90
55828;DHT22;41758;51.992;5.890;2023-12-07T07:57:47;5.90;69.90
55828;DHT22;41758;51.992;5.890;2023-12-07T08:00:13;5.80;69.80
55828;DHT22;41758;51.992;5.890;2023-12-07T08:02:39;5.90;69.80
55828;DHT22;41758;51.992;5.890;2023-12-07T08:05:05;5.90;69.80
55828;DHT22;41758;51.992;5.890;2023-12-07T08:07:31;5.90;69.80
55828;DHT22;41758;51.992;5.890;2023-12-07T08:09:56;5.90;69.80
55828;DHT22;41758;51.992;5.890;2023-12-07T08:12:22;5.90;69.80
55828;DHT22;41758;51.992;5.890;2023-12-07T08:14:50;5.80;69.60
55828;DHT22;41758;51.992;5.890;2023-12-07T08:17:16;5.80;69.60
55828;DHT22;41758;51.992;5.890;2023-12-07T08:19:42;5.80;69.60
55828;DHT22;41758;51.992;5.890;2023-12-07T08:22:08;5.80;69.70
55828;DHT22;41758;51.992;5.890;2023-12-07T08:24:34;5.80;69.70
55828;DHT22;41758;51.992;5.890;2023-12-07T08:27:00;5.90;69.90
55828;DHT22;41758;51.992;5.890;2023-12-07T08:29:26;5.90;70.00
55828;DHT22;41758;51.992;5.890;2023-12-07T08:31:52;6.00;70.10
55828;DHT22;41758;51.992;5.890;2023-12-07T08:34:17;6.00;70.10
55828;DHT22;41758;51.992;5.890;2023-12-07T08:36:43;6.00;70.00
55828;DHT22;41758;51.992;5.890;2023-12-07T08:39:09;6.10;70.00
55828;DHT22;41758;51.992;5.890;2023-12-07T08:41:35;6.10;69.90
55828;DHT22;41758;51.992;5.890;2023-12-07T08:44:02;6.10;69.90
55828;DHT22;41758;51.992;5.890;2023-12-07T08:46:27;6.20;69.90
55828;DHT22;41758;51.992;5.890;2023-12-07T08:48:53;6.20;69.80
55828;DHT22;41758;51.992;5.890;2023-12-07T08:51:19;6.20;69.50
55828;DHT22;41758;51.992;5.890;2023-12-07T08:53:45;6.10;69.30
55828;DHT22;41758;51.992;5.890;2023-12-07T08:56:11;6.10;69.30
55828;DHT22;41758;51.992;5.890;2023-12-07T08:58:41;6.10;69.50
55828;DHT22;41758;51.992;5.890;2023-12-07T09:01:07;6.10;69.70
55828;DHT22;41758;51.992;5.890;2023-12-07T09:03:32;6.20;69.80
55828;DHT22;41758;51.992;5.890;2023-12-07T09:05:59;6.20;69.90
55828;DHT22;41758;51.992;5.890;2023-12-07T09:08:25;6.20;69.90
55828;DHT22;41758;51.992;5.890;2023-12-07T09:10:51;6.30;69.90
55828;DHT22;41758;51.992;5.890;2023-12-07T09:13:19;6.30;69.80
55828;DHT22;41758;51.992;5.890;2023-12-07T09:15:45;6.30;69.80
55828;DHT22;41758;51.992;5.890;2023-12-07T09:18:11;6.30;69.80
55828;DHT22;41758;51.992;5.890;2023-12-07T09:20:37;6.40;69.80
55828;DHT22;41758;51.992;5.890;2023-12-07T09:23:14;6.30;69.60
55828;DHT22;41758;51.992;5.890;2023-12-07T09:25:43;6.30;69.70
55828;DHT22;41758;51.992;5.890;2023-12-07T09:28:09;6.40;69.60
55828;DHT22;41758;51.992;5.890;2023-12-07T09:30:35;6.30;69.60
55828;DHT22;41758;51.992;5.890;2023-12-07T09:33:01;6.30;69.60
55828;DHT22;41758;51.992;5.890;2023-12-07T09:35:28;6.30;69.60
55828;DHT22;41758;51.992;5.890;2023-12-07T09:37:54;6.40;69.70
55828;DHT22;41758;51.992;5.890;2023-12-07T09:40:21;6.40;69.80
55828;DHT22;41758;51.992;5.890;2023-12-07T09:42:47;6.40;69.60
55828;DHT22;41758;51.992;5.890;2023-12-07T09:45:14;6.40;69.60
55828;DHT22;41758;51.992;5.890;2023-12-07T09:47:42;6.40;69.70
55828;DHT22;41758;51.992;5.890;2023-12-07T09:50:08;6.40;69.70
55828;DHT22;41758;51.992;5.890;2023-12-07T09:52:35;6.40;69.60
55828;DHT22;41758;51.992;5.890;2023-12-07T09:55:04;6.40;69.50
55828;DHT22;41758;51.992;5.890;2023-12-07T09:57:31;6.40;69.60
55828;DHT22;41758;51.992;5.890;2023-12-07T09:59:57;6.40;69.50
55828;DHT22;41758;51.992;5.890;2023-12-07T10:02:23;6.40;69.60
55828;DHT22;41758;51.992;5.890;2023-12-07T10:05:02;6.40;69.70
55828;DHT22;41758;51.992;5.890;2023-12-07T10:07:35;6.40;69.60
55828;DHT22;41758;51.992;5.890;2023-12-07T10:10:02;6.40;69.60
55828;DHT22;41758;51.992;5.890;2023-12-07T10:12:29;6.40;69.50
55828;DHT22;41758;51.992;5.890;2023-12-07T10:14:55;6.30;69.60
55828;DHT22;41758;51.992;5.890;2023-12-07T10:17:20;6.40;69.70
55828;DHT22;41758;51.992;5.890;2023-12-07T10:19:46;6.40;69.80
55828;DHT22;41758;51.992;5.890;2023-12-07T10:22:34;6.40;69.80
55828;DHT22;41758;51.992;5.890;2023-12-07T10:24:59;6.40;69.70
55828;DHT22;41758;51.992;5.890;2023-12-07T10:27:26;6.40;69.70
55828;DHT22;41758;51.992;5.890;2023-12-07T10:29:53;6.40;69.80
55828;DHT22;41758;51.992;5.890;2023-12-07T10:32:21;6.40;70.00
55828;DHT22;41758;51.992;5.890;2023-12-07T10:34:47;6.50;70.10
55828;DHT22;41758;51.992;5.890;2023-12-07T10:37:12;6.60;70.20
55828;DHT22;41758;51.992;5.890;2023-12-07T10:39:38;6.60;70.20
55828;DHT22;41758;51.992;5.890;2023-12-07T10:42:08;6.60;70.10
55828;DHT22;41758;51.992;5.890;2023-12-07T10:44:36;6.70;70.20
55828;DHT22;41758;51.992;5.890;2023-12-07T10:47:05;6.80;70.20
55828;DHT22;41758;51.992;5.890;2023-12-07T10:49:32;6.80;70.10
55828;DHT22;41758;51.992;5.890;2023-12-07T10:52:00;6.80;70.10
55828;DHT22;41758;51.992;5.890;2023-12-07T10:54:39;6.80;70.10
55828;DHT22;41758;51.992;5.890;2023-12-07T10:57:07;6.80;70.20
55828;DHT22;41758;51.992;5.890;2023-12-07T10:59:35;6.90;70.20
55828;DHT22;41758;51.992;5.890;2023-12-07T11:02:02;7.00;70.30
55828;DHT22;41758;51.992;5.890;2023-12-07T11:04:29;7.00;70.30
55828;DHT22;41758;51.992;5.890;2023-12-07T11:06:59;7.00;70.20
55828;DHT22;41758;51.992;5.890;2023-12-07T11:09:31;7.10;70.20
55828;DHT22;41758;51.992;5.890;2023-12-07T11:12:25;7.10;70.20
55828;DHT22;41758;51.992;5.890;2023-12-07T11:14:53;7.20;70.20
55828;DHT22;41758;51.992;5.890;2023-12-07T11:17:20;7.20;70.20
55828;DHT22;41758;51.992;5.890;2023-12-07T11:19:47;7.30;70.30
55828;DHT22;41758;51.992;5.890;2023-12-07T11:22:13;7.30;70.20
55828;DHT22;41758;51.992;5.890;2023-12-07T11:24:53;7.30;70.10
55828;DHT22;41758;51.992;5.890;2023-12-07T11:27:19;7.30;70.20
55828;DHT22;41758;51.992;5.890;2023-12-07T11:29:46;7.40;70.20
55828;DHT22;41758;51.992;5.890;2023-12-07T11:32:13;7.40;70.20
55828;DHT22;41758;51.992;5.890;2023-12-07T11:34:41;7.40;70.30
55828;DHT22;41758;51.992;5.890;2023-12-07T11:37:09;7.50;70.30
55828;DHT22;41758;51.992;5.890;2023-12-07T11:39:41;7.60;70.30
55828;DHT22;41758;51.992;5.890;2023-12-07T11:42:10;7.60;70.10
55828;DHT22;41758;51.992;5.890;2023-12-07T11:44:40;7.60;70.00
55828;DHT22;41758;51.992;5.890;2023-12-07T11:47:07;7.60;70.00
55828;DHT22;41758;51.992;5.890;2023-12-07T11:49:32;7.50;70.10
55828;DHT22;41758;51.992;5.890;2023-12-07T11:51:59;7.60;70.20
55828;DHT22;41758;51.992;5.890;2023-12-07T11:54:26;7.60;70.10
55828;DHT22;41758;51.992;5.890;2023-12-07T11:56:55;7.70;70.20
55828;DHT22;41758;51.992;5.890;2023-12-07T11:59:22;7.70;70.40
55828;DHT22;41758;51.992;5.890;2023-12-07T12:01:49;7.80;70.50
55828;DHT22;41758;51.992;5.890;2023-12-07T12:04:15;7.90;70.50
55828;DHT22;41758;51.992;5.890;2023-12-07T12:06:45;7.90;70.50
55828;DHT22;41758;51.992;5.890;2023-12-07T12:09:15;7.90;70.50
55828;DHT22;41758;51.992;5.890;2023-12-07T12:11:47;8.00;70.40
55828;DHT22;41758;51.992;5.890;2023-12-07T12:14:14;8.00;70.40
55828;DHT22;41758;51.992;5.890;2023-12-07T12:16:42;8.10;70.50
55828;DHT22;41758;51.992;5.890;2023-12-07T12:19:08;8.10;70.50
55828;DHT22;41758;51.992;5.890;2023-12-07T12:21:38;8.20;70.50
55828;DHT22;41758;51.992;5.890;2023-12-07T12:24:07;8.20;70.40
55828;DHT22;41758;51.992;5.890;2023-12-07T12:26:39;8.30;70.40
55828;DHT22;41758;51.992;5.890;2023-12-07T12:29:06;8.30;70.40
55828;DHT22;41758;51.992;5.890;2023-12-07T12:31:38;8.30;70.30
55828;DHT22;41758;51.992;5.890;2023-12-07T12:34:07;8.30;70.30
55828;DHT22;41758;51.992;5.890;2023-12-07T12:36:37;8.40;70.30
55828;DHT22;41758;51.992;5.890;2023-12-07T12:39:03;8.40;70.30
55828;DHT22;41758;51.992;5.890;2023-12-07T12:41:34;8.40;70.10
55828;DHT22;41758;51.992;5.890;2023-12-07T12:43:59;8.40;70.10
55828;DHT22;41758;51.992;5.890;2023-12-07T12:46:25;8.40;70.10
55828;DHT22;41758;51.992;5.890;2023-12-07T12:48:58;8.40;70.10
55828;DHT22;41758;51.992;5.890;2023-12-07T12:51:28;8.50;70.10
55828;DHT22;41758;51.992;5.890;2023-12-07T12:53:55;8.50;70.00
55828;DHT22;41758;51.992;5.890;2023-12-07T12:56:22;8.50;70.10
55828;DHT22;41758;51.992;5.890;2023-12-07T12:58:54;8.50;70.10
55828;DHT22;41758;51.992;5.890;2023-12-07T13:01:23;8.50;70.00
55828;DHT22;41758;51.992;5.890;2023-12-07T13:03:49;8.50;70.00
55828;DHT22;41758;51.992;5.890;2023-12-07T13:06:15;8.50;69.90
55828;DHT22;41758;51.992;5.890;2023-12-07T13:08:45;8.50;69.80
55828;DHT22;41758;51.992;5.890;2023-12-07T13:11:18;8.40;69.90
55828;DHT22;41758;51.992;5.890;2023-12-07T13:13:45;8.40;69.90
55828;DHT22;41758;51.992;5.890;2023-12-07T13:16:18;8.40;69.80
55828;DHT22;41758;51.992;5.890;2023-12-07T13:18:45;8.40;69.80
55828;DHT22;41758;51.992;5.890;2023-12-07T13:21:11;8.40;69.90
55828;DHT22;41758;51.992;5.890;2023-12-07T13:23:37;8.40;69.90
55828;DHT22;41758;51.992;5.890;2023-12-07T13:26:03;8.40;69.90
55828;DHT22;41758;51.992;5.890;2023-12-07T13:28:30;8.40;69.90
55828;DHT22;41758;51.992;5.890;2023-12-07T13:30:55;8.40;70.00
55828;DHT22;41758;51.992;5.890;2023-12-07T13:33:21;8.40;70.00
55828;DHT22;41758;51.992;5.890;2023-12-07T13:35:49;8.40;69.90
55828;DHT22;41758;51.992;5.890;2023-12-07T13:38:14;8.40;69.90
55828;DHT22;41758;51.992;5.890;2023-12-07T13:40:40;8.40;69.80
55828;DHT22;41758;51.992;5.890;2023-12-07T13:43:06;8.40;69.80
55828;DHT22;41758;51.992;5.890;2023-12-07T13:45:32;8.40;69.70
55828;DHT22;41758;51.992;5.890;2023-12-07T13:47:57;8.40;69.70
55828;DHT22;41758;51.992;5.890;2023-12-07T13:50:24;8.40;69.80
55828;DHT22;41758;51.992;5.890;2023-12-07T13:52:49;8.40;69.80
55828;DHT22;41758;51.992;5.890;2023-12-07T13:55:15;8.30;69.80
55828;DHT22;41758;51.992;5.890;2023-12-07T13:57:41;8.30;69.60
55828;DHT22;41758;51.992;5.890;2023-12-07T14:00:07;8.30;69.60
55828;DHT22;41758;51.992;5.890;2023-12-07T14:02:33;8.30;69.60
55828;DHT22;41758;51.992;5.890;2023-12-07T14:04:58;8.20;69.80
55828;DHT22;41758;51.992;5.890;2023-12-07T14:07:24;8.30;69.80
55828;DHT22;41758;51.992;5.890;2023-12-07T14:09:52;8.20;69.80
55828;DHT22;41758;51.992;5.890;2023-12-07T14:12:18;8.30;69.90
55828;DHT22;41758;51.992;5.890;2023-12-07T14:14:46;8.20;69.90
55828;DHT22;41758;51.992;5.890;2023-12-07T14:17:13;8.30;69.90
55828;DHT22;41758;51.992;5.890;2023-12-07T14:19:39;8.30;69.90
55828;DHT22;41758;51.992;5.890;2023-12-07T14:22:05;8.30;69.90
55828;DHT22;41758;51.992;5.890;2023-12-07T14:24:31;8.20;69.80
55828;DHT22;41758;51.992;5.890;2023-12-07T14:26:57;8.20;69.90
55828;DHT22;41758;51.992;5.890;2023-12-07T14:29:23;8.20;69.90
55828;DHT22;41758;51.992;5.890;2023-12-07T14:31:50;8.30;69.90
55828;DHT22;41758;51.992;5.890;2023-12-07T14:34:17;8.30;70.00
55828;DHT22;41758;51.992;5.890;2023-12-07T14:36:43;8.30;69.90
55828;DHT22;41758;51.992;5.890;2023-12-07T14:39:12;8.20;69.90
55828;DHT22;41758;51.992;5.890;2023-12-07T14:41:46;8.20;69.90
55828;DHT22;41758;51.992;5.890;2023-12-07T14:44:13;8.20;69.90
55828;DHT22;41758;51.992;5.890;2023-12-07T14:46:47;8.20;69.80
55828;DHT22;41758;51.992;5.890;2023-12-07T14:49:14;8.20;69.80
55828;DHT22;41758;51.992;5.890;2023-12-07T14:51:40;8.20;69.80
55828;DHT22;41758;51.992;5.890;2023-12-07T14:54:07;8.10;69.80
55828;DHT22;41758;51.992;5.890;2023-12-07T14:56:35;8.10;69.80
55828;DHT22;41758;51.992;5.890;2023-12-07T14:59:01;8.10;69.70
55828;DHT22;41758;51.992;5.890;2023-12-07T15:01:27;8.10;69.70
55828;DHT22;41758;51.992;5.890;2023-12-07T15:03:53;8.00;69.70
55828;DHT22;41758;51.992;5.890;2023-12-07T15:06:19;8.00;69.70
55828;DHT22;41758;51.992;5.890;2023-12-07T15:08:45;8.00;69.70
55828;DHT22;41758;51.992;5.890;2023-12-07T15:11:12;7.90;69.70
55828;DHT22;41758;51.992;5.890;2023-12-07T15:13:38;7.90;69.70
55828;DHT22;41758;51.992;5.890;2023-12-07T15:16:05;7.90;69.60
55828;DHT22;41758;51.992;5.890;2023-12-07T15:18:31;7.90;69.60
55828;DHT22;41758;51.992;5.890;2023-12-07T15:21:00;7.90;69.60
55828;DHT22;41758;51.992;5.890;2023-12-07T15:23:27;7.80;69.60
55828;DHT22;41758;51.992;5.890;2023-12-07T15:25:52;7.80;69.60
55828;DHT22;41758;51.992;5.890;2023-12-07T15:28:20;7.80;69.60
55828;DHT22;41758;51.992;5.890;2023-12-07T15:30:46;7.70;69.50
55828;DHT22;41758;51.992;5.890;2023-12-07T15:33:12;7.70;69.50
55828;DHT22;41758;51.992;5.890;2023-12-07T15:35:39;7.60;69.50
55828;DHT22;41758;51.992;5.890;2023-12-07T15:38:05;7.60;69.50
55828;DHT22;41758;51.992;5.890;2023-12-07T15:40:31;7.50;69.50
55828;DHT22;41758;51.992;5.890;2023-12-07T15:42:56;7.60;69.50
55828;DHT22;41758;51.992;5.890;2023-12-07T15:45:22;7.50;69.50